Saint Germain, WI

11:06 AM CST on January 28, 2015 (GMT -0600)
Big Saint Germain Lake | Change Station
CLOSE
Current Station
Personal Weather Station
Location: Saint Germain, WI
Elevation: 1630 ft
Nearby Weather Stations

Elev 1630 ft 45.94 °N, 89.50 °W | Updated 154 days ago

Cloudy
Cloudy
27 °F
Feels Like 18 °F
N
11
Wind Variable Wind from South
Gusts 16 mph

Today
High -- | Low -- °F
--% Chance of Precip.
Yesterday
High -- | Low -- °F
Precip. -- in
7:24 AM 4:57 PM
Waxing Gibbous, 66% visible
Pressure 30.04 in
Visibility 7.0 miles
Clouds Overcast 900 ft
Windchill 18 °F
Dew Point 21 °F
Humidity 77%
Rainfall 0.02 in
Snow Depth Not available.
UV 1 out of 12
Pollen .10 out of 12
Air Quality Not available.
Flu Activity Not available.
METAR KEGV 281650Z AUTO 17009G15KT 7SM OVC009 M04/M07 A3004 RMK AO2 T10451071

More Conditions Fewer Conditions

Pressure 30.04 in
Visibility 7.0 miles
Clouds Overcast 900 ft
Windchill 18 °F
Dew Point 21 °F
Humidity 77%
Rainfall 0.02 in
Snow Depth Not available.
UV 1 out of 12
Pollen .10 out of 12
Air Quality Not available.
Flu Activity Not available.
METAR KEGV 281650Z AUTO 17009G15KT 7SM OVC009 M04/M07 A3004 RMK AO2 T10451071

More Conditions Fewer Conditions

10-Day Weather Forecast

Almanac

Astronomy

Jan. 28, 2015 Rise Set
Actual Time
Civil Twilight
Nautical Twilight
Astronomical Twilight
Moon
Length of Visible Light
Length of Day
Tomorrow will be .
, % of the Moon is Illuminated

Today's Extremes

State Highs State Lows

Community

WunderPhotos

Upload Photos

1,791,204 photos uploaded!

WunderBlogs® & News

Nearby

Air Quality

  Air Quality AQ Index Pollutant
Not available.

Snow Depth

Station Depth Elevation

Earthquake Activity

City Distance Mag. Time & Date
Minimum magnitude displayed is 2.5.

Coastal Water Temperatures

Place Temperature

Nearby Weather Stations